sensor_id;sensor_type;location;lat;lon;timestamp;P1;durP1;ratioP1;P2;durP2;ratioP2
23336;SDS011;11840;45.414;12.372;2024-01-30T06:59:37;31.85;;;22.83;;
23336;SDS011;11840;45.414;12.372;2024-01-30T07:02:03;32.65;;;23.05;;
23336;SDS011;11840;45.414;12.372;2024-01-30T07:04:30;29.05;;;21.65;;
23336;SDS011;11840;45.414;12.372;2024-01-30T07:06:57;31.95;;;21.23;;
23336;SDS011;11840;45.414;12.372;2024-01-30T07:09:23;30.75;;;21.42;;
23336;SDS011;11840;45.414;12.372;2024-01-30T07:11:49;31.05;;;21.50;;
23336;SDS011;11840;45.414;12.372;2024-01-30T07:14:15;31.00;;;21.95;;
23336;SDS011;11840;45.414;12.372;2024-01-30T07:16:42;31.33;;;21.27;;
23336;SDS011;11840;45.414;12.372;2024-01-30T07:19:09;30.27;;;21.70;;
23336;SDS011;11840;45.414;12.372;2024-01-30T07:21:35;31.17;;;21.02;;
23336;SDS011;11840;45.414;12.372;2024-01-30T07:24:01;29.98;;;21.13;;
23336;SDS011;11840;45.414;12.372;2024-01-30T07:26:28;29.65;;;20.38;;
23336;SDS011;11840;45.414;12.372;2024-01-30T07:28:54;29.00;;;20.40;;
23336;SDS011;11840;45.414;12.372;2024-01-30T07:31:20;30.25;;;20.90;;
23336;SDS011;11840;45.414;12.372;2024-01-30T07:33:48;29.70;;;20.10;;
23336;SDS011;11840;45.414;12.372;2024-01-30T07:36:14;29.10;;;20.85;;
23336;SDS011;11840;45.414;12.372;2024-01-30T07:38:41;27.75;;;20.15;;
23336;SDS011;11840;45.414;12.372;2024-01-30T07:41:07;30.33;;;20.42;;
23336;SDS011;11840;45.414;12.372;2024-01-30T07:43:33;31.70;;;21.83;;
23336;SDS011;11840;45.414;12.372;2024-01-30T07:45:59;30.08;;;20.75;;
23336;SDS011;11840;45.414;12.372;2024-01-30T07:48:27;27.52;;;20.27;;
23336;SDS011;11840;45.414;12.372;2024-01-30T07:50:54;29.45;;;20.88;;
23336;SDS011;11840;45.414;12.372;2024-01-30T07:53:20;29.05;;;20.13;;
23336;SDS011;11840;45.414;12.372;2024-01-30T07:55:49;28.45;;;20.63;;
23336;SDS011;11840;45.414;12.372;2024-01-30T07:58:15;29.30;;;20.60;;
23336;SDS011;11840;45.414;12.372;2024-01-30T08:00:42;28.75;;;21.27;;
23336;SDS011;11840;45.414;12.372;2024-01-30T08:03:08;28.30;;;19.70;;
23336;SDS011;11840;45.414;12.372;2024-01-30T08:05:34;24.17;;;18.77;;
23336;SDS011;11840;45.414;12.372;2024-01-30T08:08:00;28.13;;;19.75;;
23336;SDS011;11840;45.414;12.372;2024-01-30T08:10:26;26.02;;;19.00;;
23336;SDS011;11840;45.414;12.372;2024-01-30T08:12:53;27.90;;;20.13;;
23336;SDS011;11840;45.414;12.372;2024-01-30T08:15:19;27.45;;;18.92;;
23336;SDS011;11840;45.414;12.372;2024-01-30T08:17:45;28.75;;;18.77;;
23336;SDS011;11840;45.414;12.372;2024-01-30T08:20:12;25.42;;;17.83;;
23336;SDS011;11840;45.414;12.372;2024-01-30T08:22:39;26.70;;;18.83;;
23336;SDS011;11840;45.414;12.372;2024-01-30T08:25:06;25.33;;;17.85;;
23336;SDS011;11840;45.414;12.372;2024-01-30T08:27:32;27.92;;;18.92;;
23336;SDS011;11840;45.414;12.372;2024-01-30T08:29:58;24.35;;;18.58;;
23336;SDS011;11840;45.414;12.372;2024-01-30T08:32:25;26.13;;;19.50;;
23336;SDS011;11840;45.414;12.372;2024-01-30T08:34:51;25.17;;;18.77;;
23336;SDS011;11840;45.414;12.372;2024-01-30T08:37:17;27.90;;;18.92;;
23336;SDS011;11840;45.414;12.372;2024-01-30T08:39:44;24.25;;;18.30;;
23336;SDS011;11840;45.414;12.372;2024-01-30T08:42:10;23.15;;;17.50;;
23336;SDS011;11840;45.414;12.372;2024-01-30T08:44:35;25.23;;;18.95;;
23336;SDS011;11840;45.414;12.372;2024-01-30T08:47:02;28.10;;;19.45;;
23336;SDS011;11840;45.414;12.372;2024-01-30T08:49:28;30.30;;;20.83;;
23336;SDS011;11840;45.414;12.372;2024-01-30T08:51:55;29.25;;;20.42;;
23336;SDS011;11840;45.414;12.372;2024-01-30T08:54:21;27.02;;;20.33;;
23336;SDS011;11840;45.414;12.372;2024-01-30T08:56:47;25.52;;;17.95;;
23336;SDS011;11840;45.414;12.372;2024-01-30T08:59:13;24.27;;;18.30;;
23336;SDS011;11840;45.414;12.372;2024-01-30T09:01:39;23.98;;;17.67;;
23336;SDS011;11840;45.414;12.372;2024-01-30T09:04:04;25.90;;;18.02;;
23336;SDS011;11840;45.414;12.372;2024-01-30T09:06:30;24.95;;;18.05;;
23336;SDS011;11840;45.414;12.372;2024-01-30T09:08:56;28.00;;;18.65;;
23336;SDS011;11840;45.414;12.372;2024-01-30T09:11:23;28.23;;;18.05;;
23336;SDS011;11840;45.414;12.372;2024-01-30T09:13:49;24.48;;;17.65;;
23336;SDS011;11840;45.414;12.372;2024-01-30T09:16:16;24.10;;;17.50;;
23336;SDS011;11840;45.414;12.372;2024-01-30T09:18:42;24.17;;;17.67;;
23336;SDS011;11840;45.414;12.372;2024-01-30T09:21:09;23.08;;;17.92;;
23336;SDS011;11840;45.414;12.372;2024-01-30T09:23:35;24.88;;;17.83;;
23336;SDS011;11840;45.414;12.372;2024-01-30T09:26:02;25.15;;;19.13;;
23336;SDS011;11840;45.414;12.372;2024-01-30T09:28:27;26.77;;;19.73;;
23336;SDS011;11840;45.414;12.372;2024-01-30T09:30:53;24.25;;;18.80;;
23336;SDS011;11840;45.414;12.372;2024-01-30T09:33:19;25.10;;;19.20;;
23336;SDS011;11840;45.414;12.372;2024-01-30T09:35:45;27.05;;;19.05;;
23336;SDS011;11840;45.414;12.372;2024-01-30T09:38:11;30.58;;;19.58;;
23336;SDS011;11840;45.414;12.372;2024-01-30T09:40:38;23.70;;;18.02;;
23336;SDS011;11840;45.414;12.372;2024-01-30T09:43:04;29.00;;;20.63;;
23336;SDS011;11840;45.414;12.372;2024-01-30T09:45:30;31.98;;;21.70;;
23336;SDS011;11840;45.414;12.372;2024-01-30T09:47:59;27.77;;;20.10;;
23336;SDS011;11840;45.414;12.372;2024-01-30T09:50:25;27.63;;;20.60;;
23336;SDS011;11840;45.414;12.372;2024-01-30T09:52:52;27.73;;;20.75;;
23336;SDS011;11840;45.414;12.372;2024-01-30T09:55:21;32.13;;;21.80;;
23336;SDS011;11840;45.414;12.372;2024-01-30T09:57:47;28.15;;;20.67;;
23336;SDS011;11840;45.414;12.372;2024-01-30T10:00:14;26.65;;;20.77;;
23336;SDS011;11840;45.414;12.372;2024-01-30T10:02:41;28.20;;;21.15;;
23336;SDS011;11840;45.414;12.372;2024-01-30T10:05:07;28.88;;;21.15;;
23336;SDS011;11840;45.414;12.372;2024-01-30T10:07:34;30.63;;;20.25;;
23336;SDS011;11840;45.414;12.372;2024-01-30T10:10:00;29.85;;;21.70;;
23336;SDS011;11840;45.414;12.372;2024-01-30T10:12:26;28.98;;;20.25;;
23336;SDS011;11840;45.414;12.372;2024-01-30T10:14:52;30.33;;;21.20;;
23336;SDS011;11840;45.414;12.372;2024-01-30T10:17:20;28.15;;;19.83;;
23336;SDS011;11840;45.414;12.372;2024-01-30T10:19:46;28.70;;;21.70;;
23336;SDS011;11840;45.414;12.372;2024-01-30T10:22:12;31.33;;;22.13;;
23336;SDS011;11840;45.414;12.372;2024-01-30T10:24:38;29.15;;;21.02;;
23336;SDS011;11840;45.414;12.372;2024-01-30T10:27:05;31.15;;;21.75;;
23336;SDS011;11840;45.414;12.372;2024-01-30T10:29:31;30.38;;;21.88;;
23336;SDS011;11840;45.414;12.372;2024-01-30T10:32:01;29.92;;;20.83;;
23336;SDS011;11840;45.414;12.372;2024-01-30T10:34:28;29.00;;;21.10;;
23336;SDS011;11840;45.414;12.372;2024-01-30T10:37:05;28.17;;;20.13;;
23336;SDS011;11840;45.414;12.372;2024-01-30T10:39:34;26.52;;;19.25;;
23336;SDS011;11840;45.414;12.372;2024-01-30T10:42:03;27.35;;;19.63;;
23336;SDS011;11840;45.414;12.372;2024-01-30T10:44:30;28.20;;;20.33;;
23336;SDS011;11840;45.414;12.372;2024-01-30T10:47:03;30.25;;;20.25;;
23336;SDS011;11840;45.414;12.372;2024-01-30T10:49:32;28.25;;;20.30;;
23336;SDS011;11840;45.414;12.372;2024-01-30T10:51:59;26.02;;;19.67;;
23336;SDS011;11840;45.414;12.372;2024-01-30T10:54:25;28.60;;;21.55;;
23336;SDS011;11840;45.414;12.372;2024-01-30T10:56:52;29.30;;;21.52;;
23336;SDS011;11840;45.414;12.372;2024-01-30T10:59:19;30.88;;;21.60;;
23336;SDS011;11840;45.414;12.372;2024-01-30T11:01:46;30.48;;;22.25;;
23336;SDS011;11840;45.414;12.372;2024-01-30T11:04:12;32.13;;;22.70;;
23336;SDS011;11840;45.414;12.372;2024-01-30T11:06:41;29.35;;;21.63;;
23336;SDS011;11840;45.414;12.372;2024-01-30T11:09:11;28.83;;;21.63;;
23336;SDS011;11840;45.414;12.372;2024-01-30T11:14:26;28.58;;;21.83;;
23336;SDS011;11840;45.414;12.372;2024-01-30T11:16:52;28.23;;;20.85;;
23336;SDS011;11840;45.414;12.372;2024-01-30T11:19:30;27.55;;;20.92;;
23336;SDS011;11840;45.414;12.372;2024-01-30T11:21:56;28.58;;;21.08;;
23336;SDS011;11840;45.414;12.372;2024-01-30T11:24:23;27.55;;;20.73;;
23336;SDS011;11840;45.414;12.372;2024-01-30T11:26:49;28.27;;;21.23;;
23336;SDS011;11840;45.414;12.372;2024-01-30T11:29:16;30.70;;;21.27;;
23336;SDS011;11840;45.414;12.372;2024-01-30T11:31:52;29.08;;;21.40;;
23336;SDS011;11840;45.414;12.372;2024-01-30T11:34:19;28.60;;;20.88;;
23336;SDS011;11840;45.414;12.372;2024-01-30T11:36:45;29.23;;;21.38;;
23336;SDS011;11840;45.414;12.372;2024-01-30T11:39:16;30.00;;;21.55;;
23336;SDS011;11840;45.414;12.372;2024-01-30T11:41:43;29.75;;;21.90;;
23336;SDS011;11840;45.414;12.372;2024-01-30T11:44:11;31.02;;;22.77;;
23336;SDS011;11840;45.414;12.372;2024-01-30T11:46:38;30.42;;;22.02;;
23336;SDS011;11840;45.414;12.372;2024-01-30T11:49:04;29.00;;;21.17;;
23336;SDS011;11840;45.414;12.372;2024-01-30T11:51:30;28.98;;;21.73;;
23336;SDS011;11840;45.414;12.372;2024-01-30T11:53:57;30.88;;;21.73;;
23336;SDS011;11840;45.414;12.372;2024-01-30T11:56:23;32.35;;;22.42;;
23336;SDS011;11840;45.414;12.372;2024-01-30T11:58:50;32.42;;;22.60;;
23336;SDS011;11840;45.414;12.372;2024-01-30T12:01:17;30.35;;;22.70;;
23336;SDS011;11840;45.414;12.372;2024-01-30T12:03:49;29.15;;;21.13;;
23336;SDS011;11840;45.414;12.372;2024-01-30T12:06:15;32.95;;;23.10;;
23336;SDS011;11840;45.414;12.372;2024-01-30T12:08:42;32.67;;;22.58;;
23336;SDS011;11840;45.414;12.372;2024-01-30T12:11:08;33.10;;;23.60;;
23336;SDS011;11840;45.414;12.372;2024-01-30T12:13:33;32.10;;;24.02;;
23336;SDS011;11840;45.414;12.372;2024-01-30T12:16:00;32.20;;;23.38;;
23336;SDS011;11840;45.414;12.372;2024-01-30T12:18:26;35.40;;;23.67;;
23336;SDS011;11840;45.414;12.372;2024-01-30T12:20:59;30.10;;;22.63;;
23336;SDS011;11840;45.414;12.372;2024-01-30T12:23:26;32.00;;;23.52;;
23336;SDS011;11840;45.414;12.372;2024-01-30T12:25:52;32.58;;;23.20;;
23336;SDS011;11840;45.414;12.372;2024-01-30T12:28:19;30.33;;;23.17;;
23336;SDS011;11840;45.414;12.372;2024-01-30T12:30:45;31.15;;;23.83;;
23336;SDS011;11840;45.414;12.372;2024-01-30T12:33:17;34.90;;;24.98;;
23336;SDS011;11840;45.414;12.372;2024-01-30T12:35:46;34.33;;;25.38;;
23336;SDS011;11840;45.414;12.372;2024-01-30T12:38:13;30.67;;;23.80;;
23336;SDS011;11840;45.414;12.372;2024-01-30T12:40:40;33.72;;;25.23;;
23336;SDS011;11840;45.414;12.372;2024-01-30T12:43:05;33.38;;;25.42;;
23336;SDS011;11840;45.414;12.372;2024-01-30T12:45:32;38.03;;;25.98;;
23336;SDS011;11840;45.414;12.372;2024-01-30T12:47:58;38.15;;;26.55;;
23336;SDS011;11840;45.414;12.372;2024-01-30T12:50:25;34.70;;;25.75;;
23336;SDS011;11840;45.414;12.372;2024-01-30T12:52:51;34.30;;;26.02;;
23336;SDS011;11840;45.414;12.372;2024-01-30T12:55:17;37.42;;;25.17;;
23336;SDS011;11840;45.414;12.372;2024-01-30T12:57:43;36.10;;;25.15;;
23336;SDS011;11840;45.414;12.372;2024-01-30T13:00:09;34.55;;;25.58;;
23336;SDS011;11840;45.414;12.372;2024-01-30T13:02:35;36.65;;;25.92;;
23336;SDS011;11840;45.414;12.372;2024-01-30T13:05:03;36.13;;;25.85;;
23336;SDS011;11840;45.414;12.372;2024-01-30T13:07:29;38.22;;;27.00;;
23336;SDS011;11840;45.414;12.372;2024-01-30T13:09:56;38.38;;;26.25;;
23336;SDS011;11840;45.414;12.372;2024-01-30T13:12:22;33.17;;;25.05;;
23336;SDS011;11840;45.414;12.372;2024-01-30T13:14:48;38.63;;;27.15;;
23336;SDS011;11840;45.414;12.372;2024-01-30T13:17:14;34.70;;;26.48;;
23336;SDS011;11840;45.414;12.372;2024-01-30T13:19:40;36.08;;;25.98;;
23336;SDS011;11840;45.414;12.372;2024-01-30T13:22:06;34.97;;;26.60;;
23336;SDS011;11840;45.414;12.372;2024-01-30T13:24:32;35.95;;;26.20;;
23336;SDS011;11840;45.414;12.372;2024-01-30T13:26:58;35.33;;;26.40;;
23336;SDS011;11840;45.414;12.372;2024-01-30T13:29:25;36.00;;;26.40;;
23336;SDS011;11840;45.414;12.372;2024-01-30T13:31:50;38.35;;;27.92;;
23336;SDS011;11840;45.414;12.372;2024-01-30T13:34:17;38.13;;;26.80;;
23336;SDS011;11840;45.414;12.372;2024-01-30T13:36:43;38.85;;;26.38;;
23336;SDS011;11840;45.414;12.372;2024-01-30T13:39:09;36.72;;;27.15;;
23336;SDS011;11840;45.414;12.372;2024-01-30T13:41:36;37.70;;;27.67;;
23336;SDS011;11840;45.414;12.372;2024-01-30T13:44:03;36.97;;;26.88;;
23336;SDS011;11840;45.414;12.372;2024-01-30T13:46:30;37.17;;;27.70;;
23336;SDS011;11840;45.414;12.372;2024-01-30T13:48:56;39.38;;;27.40;;
23336;SDS011;11840;45.414;12.372;2024-01-30T13:51:22;43.22;;;28.50;;
23336;SDS011;11840;45.414;12.372;2024-01-30T13:53:49;38.20;;;27.27;;
23336;SDS011;11840;45.414;12.372;2024-01-30T13:56:15;38.78;;;28.67;;
23336;SDS011;11840;45.414;12.372;2024-01-30T13:58:41;40.90;;;28.50;;
23336;SDS011;11840;45.414;12.372;2024-01-30T14:01:08;41.28;;;26.73;;
23336;SDS011;11840;45.414;12.372;2024-01-30T14:03:35;41.88;;;27.45;;
23336;SDS011;11840;45.414;12.372;2024-01-30T14:06:01;38.78;;;27.88;;
23336;SDS011;11840;45.414;12.372;2024-01-30T14:08:28;42.13;;;28.02;;
23336;SDS011;11840;45.414;12.372;2024-01-30T14:10:54;37.20;;;27.52;;
23336;SDS011;11840;45.414;12.372;2024-01-30T14:13:21;38.42;;;27.63;;
23336;SDS011;11840;45.414;12.372;2024-01-30T14:15:48;40.20;;;27.27;;
23336;SDS011;11840;45.414;12.372;2024-01-30T14:18:14;37.50;;;27.05;;
23336;SDS011;11840;45.414;12.372;2024-01-30T14:20:41;41.15;;;28.25;;
23336;SDS011;11840;45.414;12.372;2024-01-30T14:23:07;36.85;;;27.30;;
23336;SDS011;11840;45.414;12.372;2024-01-30T14:25:34;43.33;;;28.10;;
23336;SDS011;11840;45.414;12.372;2024-01-30T14:28:00;40.47;;;28.42;;
23336;SDS011;11840;45.414;12.372;2024-01-30T14:30:27;38.80;;;27.63;;
23336;SDS011;11840;45.414;12.372;2024-01-30T14:32:52;40.63;;;26.92;;
23336;SDS011;11840;45.414;12.372;2024-01-30T14:35:19;42.88;;;25.95;;
23336;SDS011;11840;45.414;12.372;2024-01-30T14:37:45;38.72;;;26.42;;
23336;SDS011;11840;45.414;12.372;2024-01-30T14:40:11;38.38;;;26.20;;
23336;SDS011;11840;45.414;12.372;2024-01-30T14:42:37;44.88;;;34.00;;
23336;SDS011;11840;45.414;12.372;2024-01-30T14:45:06;41.72;;;27.75;;
23336;SDS011;11840;45.414;12.372;2024-01-30T14:47:32;38.70;;;25.65;;
23336;SDS011;11840;45.414;12.372;2024-01-30T14:49:58;39.20;;;26.02;;
23336;SDS011;11840;45.414;12.372;2024-01-30T14:52:24;34.30;;;24.30;;
23336;SDS011;11840;45.414;12.372;2024-01-30T14:54:51;36.65;;;23.55;;
23336;SDS011;11840;45.414;12.372;2024-01-30T14:57:17;36.35;;;24.65;;
23336;SDS011;11840;45.414;12.372;2024-01-30T14:59:43;36.17;;;23.85;;
23336;SDS011;11840;45.414;12.372;2024-01-30T15:02:09;40.30;;;24.30;;
23336;SDS011;11840;45.414;12.372;2024-01-30T15:04:35;34.45;;;22.90;;
23336;SDS011;11840;45.414;12.372;2024-01-30T15:07:01;38.63;;;23.50;;
23336;SDS011;11840;45.414;12.372;2024-01-30T15:09:27;33.78;;;22.42;;
23336;SDS011;11840;45.414;12.372;2024-01-30T15:11:53;39.53;;;23.13;;
23336;SDS011;11840;45.414;12.372;2024-01-30T15:14:19;33.45;;;21.95;;
23336;SDS011;11840;45.414;12.372;2024-01-30T15:16:44;38.00;;;23.27;;
23336;SDS011;11840;45.414;12.372;2024-01-30T15:19:11;32.65;;;21.90;;
23336;SDS011;11840;45.414;12.372;2024-01-30T15:21:37;31.65;;;21.50;;
23336;SDS011;11840;45.414;12.372;2024-01-30T15:24:04;33.80;;;22.05;;
23336;SDS011;11840;45.414;12.372;2024-01-30T15:26:32;34.85;;;22.63;;
23336;SDS011;11840;45.414;12.372;2024-01-30T15:28:58;34.45;;;23.08;;
23336;SDS011;11840;45.414;12.372;2024-01-30T15:31:24;31.67;;;21.92;;
23336;SDS011;11840;45.414;12.372;2024-01-30T15:33:49;32.83;;;22.23;;
23336;SDS011;11840;45.414;12.372;2024-01-30T15:36:16;34.22;;;22.33;;
23336;SDS011;11840;45.414;12.372;2024-01-30T15:38:42;34.53;;;23.25;;
23336;SDS011;11840;45.414;12.372;2024-01-30T15:41:08;32.65;;;22.23;;
23336;SDS011;11840;45.414;12.372;2024-01-30T15:43:34;35.38;;;23.90;;
23336;SDS011;11840;45.414;12.372;2024-01-30T15:46:01;33.13;;;22.27;;
23336;SDS011;11840;45.414;12.372;2024-01-30T15:48:27;36.78;;;23.08;;
23336;SDS011;11840;45.414;12.372;2024-01-30T15:50:53;34.50;;;23.23;;
23336;SDS011;11840;45.414;12.372;2024-01-30T15:53:22;35.17;;;22.30;;
23336;SDS011;11840;45.414;12.372;2024-01-30T15:55:48;35.00;;;23.58;;
23336;SDS011;11840;45.414;12.372;2024-01-30T15:58:14;35.17;;;22.52;;
23336;SDS011;11840;45.414;12.372;2024-01-30T16:00:40;36.50;;;23.50;;
23336;SDS011;11840;45.414;12.372;2024-01-30T16:03:07;35.60;;;24.13;;
23336;SDS011;11840;45.414;12.372;2024-01-30T16:05:32;34.13;;;22.58;;
23336;SDS011;11840;45.414;12.372;2024-01-30T16:07:59;38.97;;;24.45;;
23336;SDS011;11840;45.414;12.372;2024-01-30T16:10:25;40.60;;;25.92;;
23336;SDS011;11840;45.414;12.372;2024-01-30T16:12:51;40.05;;;25.52;;
23336;SDS011;11840;45.414;12.372;2024-01-30T16:15:17;38.15;;;24.33;;
23336;SDS011;11840;45.414;12.372;2024-01-30T16:17:44;36.90;;;22.65;;
23336;SDS011;11840;45.414;12.372;2024-01-30T16:20:10;39.30;;;24.77;;
23336;SDS011;11840;45.414;12.372;2024-01-30T16:22:36;34.95;;;23.65;;
23336;SDS011;11840;45.414;12.372;2024-01-30T16:25:05;38.00;;;24.00;;
23336;SDS011;11840;45.414;12.372;2024-01-30T16:27:31;37.33;;;24.50;;
23336;SDS011;11840;45.414;12.372;2024-01-30T16:29:57;37.67;;;23.65;;
23336;SDS011;11840;45.414;12.372;2024-01-30T16:32:23;38.13;;;24.25;;
23336;SDS011;11840;45.414;12.372;2024-01-30T16:34:50;35.20;;;24.25;;
23336;SDS011;11840;45.414;12.372;2024-01-30T16:37:16;37.13;;;24.08;;
23336;SDS011;11840;45.414;12.372;2024-01-30T16:39:42;40.95;;;25.02;;
23336;SDS011;11840;45.414;12.372;2024-01-30T16:42:08;35.70;;;22.70;;
23336;SDS011;11840;45.414;12.372;2024-01-30T16:44:35;35.85;;;23.38;;
23336;SDS011;11840;45.414;12.372;2024-01-30T16:47:01;40.00;;;24.23;;
23336;SDS011;11840;45.414;12.372;2024-01-30T16:49:27;35.72;;;23.52;;
23336;SDS011;11840;45.414;12.372;2024-01-30T16:51:53;35.10;;;22.77;;
23336;SDS011;11840;45.414;12.372;2024-01-30T16:54:19;38.17;;;23.75;;
23336;SDS011;11840;45.414;12.372;2024-01-30T16:56:45;37.00;;;24.63;;
23336;SDS011;11840;45.414;12.372;2024-01-30T16:59:16;34.90;;;23.70;;
23336;SDS011;11840;45.414;12.372;2024-01-30T17:01:43;35.50;;;23.10;;
23336;SDS011;11840;45.414;12.372;2024-01-30T17:04:10;36.90;;;24.17;;
23336;SDS011;11840;45.414;12.372;2024-01-30T17:06:37;34.15;;;23.73;;
23336;SDS011;11840;45.414;12.372;2024-01-30T17:09:03;37.58;;;23.58;;
23336;SDS011;11840;45.414;12.372;2024-01-30T17:11:29;35.03;;;23.42;;
23336;SDS011;11840;45.414;12.372;2024-01-30T17:13:54;38.30;;;24.73;;
23336;SDS011;11840;45.414;12.372;2024-01-30T17:16:21;38.83;;;23.52;;
23336;SDS011;11840;45.414;12.372;2024-01-30T17:18:47;37.17;;;24.25;;
23336;SDS011;11840;45.414;12.372;2024-01-30T17:21:19;39.35;;;25.02;;
23336;SDS011;11840;45.414;12.372;2024-01-30T17:23:46;35.03;;;22.88;;
23336;SDS011;11840;45.414;12.372;2024-01-30T17:26:12;35.20;;;23.48;;
23336;SDS011;11840;45.414;12.372;2024-01-30T17:28:38;37.78;;;24.83;;
23336;SDS011;11840;45.414;12.372;2024-01-30T17:31:05;38.05;;;23.92;;
23336;SDS011;11840;45.414;12.372;2024-01-30T17:33:30;36.55;;;24.63;;
23336;SDS011;11840;45.414;12.372;2024-01-30T17:35:56;34.53;;;23.10;;
23336;SDS011;11840;45.414;12.372;2024-01-30T17:38:23;35.45;;;23.13;;
23336;SDS011;11840;45.414;12.372;2024-01-30T17:40:49;34.50;;;23.92;;
23336;SDS011;11840;45.414;12.372;2024-01-30T17:43:16;33.10;;;23.08;;
23336;SDS011;11840;45.414;12.372;2024-01-30T17:45:43;33.80;;;23.00;;
23336;SDS011;11840;45.414;12.372;2024-01-30T17:48:09;34.40;;;22.90;;
23336;SDS011;11840;45.414;12.372;2024-01-30T17:50:35;36.90;;;23.95;;
23336;SDS011;11840;45.414;12.372;2024-01-30T17:53:01;39.17;;;26.55;;
23336;SDS011;11840;45.414;12.372;2024-01-30T17:55:27;37.95;;;24.73;;
23336;SDS011;11840;45.414;12.372;2024-01-30T17:57:53;34.88;;;22.58;;
23336;SDS011;11840;45.414;12.372;2024-01-30T18:00:19;36.92;;;24.77;;
23336;SDS011;11840;45.414;12.372;2024-01-30T18:02:45;40.63;;;25.58;;
23336;SDS011;11840;45.414;12.372;2024-01-30T18:05:11;33.72;;;23.20;;
23336;SDS011;11840;45.414;12.372;2024-01-30T18:07:38;36.33;;;24.13;;
23336;SDS011;11840;45.414;12.372;2024-01-30T18:10:07;35.10;;;23.63;;
23336;SDS011;11840;45.414;12.372;2024-01-30T18:12:33;35.75;;;23.55;;
23336;SDS011;11840;45.414;12.372;2024-01-30T18:14:59;37.42;;;24.10;;
23336;SDS011;11840;45.414;12.372;2024-01-30T18:17:26;34.03;;;22.77;;
23336;SDS011;11840;45.414;12.372;2024-01-30T18:19:52;36.47;;;24.35;;
23336;SDS011;11840;45.414;12.372;2024-01-30T18:22:18;35.08;;;22.70;;
23336;SDS011;11840;45.414;12.372;2024-01-30T18:24:44;35.45;;;23.27;;
23336;SDS011;11840;45.414;12.372;2024-01-30T18:27:10;40.10;;;24.30;;
23336;SDS011;11840;45.414;12.372;2024-01-30T18:29:37;37.97;;;24.83;;
23336;SDS011;11840;45.414;12.372;2024-01-30T18:32:05;34.35;;;23.15;;
23336;SDS011;11840;45.414;12.372;2024-01-30T18:34:31;40.70;;;26.13;;
23336;SDS011;11840;45.414;12.372;2024-01-30T18:36:56;34.75;;;23.38;;
23336;SDS011;11840;45.414;12.372;2024-01-30T18:39:26;54.85;;;33.88;;
23336;SDS011;11840;45.414;12.372;2024-01-30T18:41:52;45.50;;;26.88;;
23336;SDS011;11840;45.414;12.372;2024-01-30T18:44:18;39.17;;;24.73;;
23336;SDS011;11840;45.414;12.372;2024-01-30T18:46:44;37.25;;;23.48;;
23336;SDS011;11840;45.414;12.372;2024-01-30T18:49:10;38.47;;;23.98;;
23336;SDS011;11840;45.414;12.372;2024-01-30T18:51:36;38.63;;;24.42;;
23336;SDS011;11840;45.414;12.372;2024-01-30T18:54:02;39.20;;;23.40;;
23336;SDS011;11840;45.414;12.372;2024-01-30T18:56:28;37.00;;;24.02;;
23336;SDS011;11840;45.414;12.372;2024-01-30T18:58:54;57.75;;;33.65;;
23336;SDS011;11840;45.414;12.372;2024-01-30T19:01:21;52.00;;;29.67;;
23336;SDS011;11840;45.414;12.372;2024-01-30T19:03:47;44.60;;;25.90;;
23336;SDS011;11840;45.414;12.372;2024-01-30T19:06:13;44.95;;;25.50;;
23336;SDS011;11840;45.414;12.372;2024-01-30T19:08:39;40.75;;;24.17;;
23336;SDS011;11840;45.414;12.372;2024-01-30T19:11:06;40.85;;;26.15;;
23336;SDS011;11840;45.414;12.372;2024-01-30T19:13:32;43.38;;;26.25;;
23336;SDS011;11840;45.414;12.372;2024-01-30T19:15:58;40.40;;;25.27;;
23336;SDS011;11840;45.414;12.372;2024-01-30T19:18:24;41.90;;;26.48;;
23336;SDS011;11840;45.414;12.372;2024-01-30T19:20:51;44.63;;;26.17;;
23336;SDS011;11840;45.414;12.372;2024-01-30T19:23:17;42.85;;;25.73;;
23336;SDS011;11840;45.414;12.372;2024-01-30T19:25:44;41.33;;;26.17;;
23336;SDS011;11840;45.414;12.372;2024-01-30T19:28:10;48.75;;;28.55;;
23336;SDS011;11840;45.414;12.372;2024-01-30T19:30:37;45.58;;;27.33;;
23336;SDS011;11840;45.414;12.372;2024-01-30T19:33:04;43.28;;;26.52;;
23336;SDS011;11840;45.414;12.372;2024-01-30T19:35:29;41.58;;;27.30;;
23336;SDS011;11840;45.414;12.372;2024-01-30T19:37:55;43.50;;;27.40;;
23336;SDS011;11840;45.414;12.372;2024-01-30T19:40:22;45.63;;;27.77;;
23336;SDS011;11840;45.414;12.372;2024-01-30T19:42:48;45.28;;;27.13;;
23336;SDS011;11840;45.414;12.372;2024-01-30T19:45:16;44.15;;;26.85;;
23336;SDS011;11840;45.414;12.372;2024-01-30T19:47:43;42.25;;;26.83;;
23336;SDS011;11840;45.414;12.372;2024-01-30T19:50:09;45.65;;;27.02;;
23336;SDS011;11840;45.414;12.372;2024-01-30T19:52:35;45.78;;;27.58;;
23336;SDS011;11840;45.414;12.372;2024-01-30T19:55:04;43.88;;;27.00;;
23336;SDS011;11840;45.414;12.372;2024-01-30T19:57:31;58.05;;;34.75;;
23336;SDS011;11840;45.414;12.372;2024-01-30T19:59:57;46.67;;;26.95;;
23336;SDS011;11840;45.414;12.372;2024-01-30T20:02:23;42.80;;;26.40;;
23336;SDS011;11840;45.414;12.372;2024-01-30T20:04:50;49.42;;;27.58;;
23336;SDS011;11840;45.414;12.372;2024-01-30T20:07:17;46.95;;;27.58;;
23336;SDS011;11840;45.414;12.372;2024-01-30T20:09:43;46.17;;;26.90;;
23336;SDS011;11840;45.414;12.372;2024-01-30T20:12:09;40.80;;;25.45;;
23336;SDS011;11840;45.414;12.372;2024-01-30T20:14:35;43.50;;;25.90;;
23336;SDS011;11840;45.414;12.372;2024-01-30T20:17:01;45.15;;;27.30;;
23336;SDS011;11840;45.414;12.372;2024-01-30T20:19:27;49.08;;;26.55;;
23336;SDS011;11840;45.414;12.372;2024-01-30T20:21:54;40.83;;;25.77;;
23336;SDS011;11840;45.414;12.372;2024-01-30T20:24:19;41.10;;;25.40;;
23336;SDS011;11840;45.414;12.372;2024-01-30T20:26:46;44.97;;;27.70;;
23336;SDS011;11840;45.414;12.372;2024-01-30T20:29:12;43.42;;;27.33;;
23336;SDS011;11840;45.414;12.372;2024-01-30T20:31:38;42.22;;;25.83;;
23336;SDS011;11840;45.414;12.372;2024-01-30T20:34:04;46.05;;;27.30;;
23336;SDS011;11840;45.414;12.372;2024-01-30T20:36:31;45.75;;;27.02;;
23336;SDS011;11840;45.414;12.372;2024-01-30T20:38:58;43.20;;;26.30;;
23336;SDS011;11840;45.414;12.372;2024-01-30T20:41:24;42.72;;;25.70;;
23336;SDS011;11840;45.414;12.372;2024-01-30T20:43:50;44.13;;;26.88;;
23336;SDS011;11840;45.414;12.372;2024-01-30T20:46:17;48.75;;;27.73;;
23336;SDS011;11840;45.414;12.372;2024-01-30T20:48:43;42.17;;;25.98;;
23336;SDS011;11840;45.414;12.372;2024-01-30T20:51:10;43.83;;;26.48;;
23336;SDS011;11840;45.414;12.372;2024-01-30T20:53:36;48.50;;;26.70;;
23336;SDS011;11840;45.414;12.372;2024-01-30T20:56:02;48.75;;;28.75;;
23336;SDS011;11840;45.414;12.372;2024-01-30T20:58:28;43.95;;;26.17;;
23336;SDS011;11840;45.414;12.372;2024-01-30T21:00:55;53.15;;;31.02;;
23336;SDS011;11840;45.414;12.372;2024-01-30T21:03:21;48.60;;;27.80;;
23336;SDS011;11840;45.414;12.372;2024-01-30T21:05:50;47.50;;;27.30;;